createdAt,value
2019-05-23T00:01:14.518Z,101446.67
2019-05-23T00:04:14.249Z,101458.45
2019-05-23T00:07:07.133Z,101447.23
2019-05-23T00:09:58.248Z,101449.39
2019-05-23T00:12:57.104Z,101447.16
2019-05-23T00:15:44.836Z,101451.70
2019-05-23T00:18:21.265Z,101443.80
2019-05-23T00:20:51.672Z,101454.10
2019-05-23T00:23:23.079Z,101450.74
2019-05-23T00:25:54.327Z,101450.82
2019-05-23T00:28:25.845Z,101447.67
2019-05-23T00:31:05.154Z,101452.22
2019-05-23T00:33:38.129Z,101449.66
2019-05-23T00:36:11.174Z,101455.02
2019-05-23T00:38:42.388Z,101449.73
2019-05-23T00:41:14.328Z,101451.58
2019-05-23T00:43:46.054Z,101452.97
2019-05-23T00:46:17.773Z,101451.73
2019-05-23T00:48:51.039Z,101454.36
2019-05-23T00:51:23.496Z,101450.89
2019-05-23T00:53:54.798Z,101449.58
2019-05-23T00:56:26.311Z,101458.08
2019-05-23T00:58:58.296Z,101453.72
2019-05-23T01:01:29.993Z,101457.16
2019-05-23T01:04:01.337Z,101451.41
2019-05-23T01:06:33.449Z,101453.05
2019-05-23T01:09:07.040Z,101460.28
2019-05-23T01:11:38.564Z,101459.61
2019-05-23T01:14:09.993Z,101460.69
2019-05-23T01:16:41.228Z,101456.06
2019-05-23T01:19:12.698Z,101462.89
2019-05-23T01:21:56.659Z,101461.73
2019-05-23T01:24:59.451Z,101460.14
2019-05-23T01:27:31.151Z,101455.52
2019-05-23T01:30:03.553Z,101461.38
2019-05-23T01:32:44.328Z,101453.59
2019-05-23T01:35:20.144Z,101448.48
2019-05-23T01:37:51.390Z,101448.40
2019-05-23T01:40:22.761Z,101452.83
2019-05-23T01:42:54.239Z,101447.00
2019-05-23T01:45:26.514Z,101450.95
2019-05-23T01:47:57.774Z,101457.85
2019-05-23T01:50:29.174Z,101460.20
2019-05-23T01:53:00.470Z,101458.96
2019-05-23T01:55:31.685Z,101457.05
2019-05-23T01:58:03.572Z,101461.23
2019-05-23T02:00:36.401Z,101454.96
2019-05-23T02:03:08.072Z,101457.11
2019-05-23T02:05:40.175Z,101452.08
2019-05-23T02:08:12.722Z,101456.11
2019-05-23T02:10:44.322Z,101456.28
2019-05-23T02:13:15.959Z,101460.74
2019-05-23T02:15:47.636Z,101455.48
2019-05-23T02:18:18.861Z,101457.28
2019-05-23T02:20:50.798Z,101462.14
2019-05-23T02:23:22.721Z,101464.37
2019-05-23T02:25:54.671Z,101460.74
2019-05-23T02:28:26.139Z,101458.52
2019-05-23T02:30:58.216Z,101462.86
2019-05-23T02:33:30.644Z,101461.06
2019-05-23T02:36:02.405Z,101458.23
2019-05-23T02:38:44.303Z,101452.80
2019-05-23T02:41:26.587Z,101459.38
2019-05-23T02:44:03.668Z,101453.19
2019-05-23T02:46:42.347Z,101457.75
2019-05-23T02:49:15.863Z,101456.27
2019-05-23T02:51:47.360Z,101460.61
2019-05-23T02:54:19.948Z,101460.61
2019-05-23T02:56:52.869Z,101455.34
2019-05-23T02:59:47.957Z,101456.66
2019-05-23T03:03:02.580Z,101466.05
2019-05-23T03:05:37.356Z,101458.66
2019-05-23T03:08:12.451Z,101459.45
2019-05-23T03:11:09.925Z,101456.91
2019-05-23T03:13:41.855Z,101463.09
2019-05-23T03:16:19.459Z,101459.55
2019-05-23T03:18:56.153Z,101463.17
2019-05-23T03:21:29.300Z,101463.09
2019-05-23T03:24:01.794Z,101456.91
2019-05-23T03:27:16.856Z,101457.83
2019-05-23T03:29:48.485Z,101460.86
2019-05-23T03:32:50.866Z,101459.14
2019-05-23T03:35:50.208Z,101450.84
2019-05-23T03:38:23.061Z,101451.77
2019-05-23T03:40:54.787Z,101457.91
2019-05-23T03:43:26.757Z,101455.59
2019-05-23T03:46:02.433Z,101454.03
2019-05-23T03:48:34.129Z,101456.06
2019-05-23T03:51:06.379Z,101455.89
2019-05-23T03:53:38.538Z,101451.46
2019-05-23T03:56:11.319Z,101452.17
2019-05-23T03:58:44.231Z,101454.41
2019-05-23T04:01:18.091Z,101452.58
2019-05-23T04:03:50.522Z,101453.66
2019-05-23T04:06:22.381Z,101456.06
2019-05-23T04:08:54.128Z,101454.63
2019-05-23T04:11:25.318Z,101459.23
2019-05-23T04:13:56.623Z,101454.64
2019-05-23T04:16:30.595Z,101456.73
2019-05-23T04:19:01.161Z,101457.33
2019-05-23T04:21:32.327Z,101457.57
2019-05-23T04:24:04.016Z,101459.48
2019-05-23T04:26:35.204Z,101457.94
2019-05-23T04:29:06.532Z,101458.53
2019-05-23T04:31:37.718Z,101460.94
2019-05-23T04:34:09.880Z,101459.38
2019-05-23T04:36:41.057Z,101469.28
2019-05-23T04:39:13.276Z,101472.07
2019-05-23T04:41:45.132Z,101463.85
2019-05-23T04:44:18.239Z,101469.02
2019-05-23T04:46:50.202Z,101467.68
2019-05-23T04:49:21.650Z,101469.52
2019-05-23T04:51:53.574Z,101466.44
2019-05-23T04:54:26.097Z,101467.52
2019-05-23T04:56:57.330Z,101468.63
2019-05-23T04:59:28.640Z,101470.50
2019-05-23T05:02:00.733Z,101475.05
2019-05-23T05:04:32.516Z,101478.77
2019-05-23T05:07:04.474Z,101470.53
2019-05-23T05:09:35.818Z,101469.77
2019-05-23T05:12:07.642Z,101474.72
2019-05-23T05:14:38.942Z,101483.23
2019-05-23T05:17:11.775Z,101478.95
2019-05-23T05:19:43.053Z,101483.98
2019-05-23T05:22:14.641Z,101485.05
2019-05-23T05:24:46.163Z,101485.72
2019-05-23T05:27:19.326Z,101486.39
2019-05-23T05:29:50.770Z,101491.93
2019-05-23T05:32:22.257Z,101498.35
2019-05-23T05:34:53.507Z,101495.22
2019-05-23T05:37:25.026Z,101503.63
2019-05-23T05:39:56.352Z,101497.70
2019-05-23T05:42:29.392Z,101509.51
2019-05-23T05:45:00.891Z,101507.17
2019-05-23T05:47:32.221Z,101515.42
2019-05-23T05:50:05.775Z,101516.23
2019-05-23T05:52:37.441Z,101520.46
2019-05-23T05:55:08.690Z,101516.32
2019-05-23T05:57:39.907Z,101517.53
2019-05-23T06:00:27.842Z,101511.59
2019-05-23T06:03:05.543Z,101521.09
2019-05-23T06:05:38.947Z,101512.14
2019-05-23T06:08:10.800Z,101523.95
2019-05-23T06:10:43.283Z,101518.47
2019-05-23T06:13:15.280Z,101517.73
2019-05-23T06:15:49.017Z,101523.68
2019-05-23T06:18:20.658Z,101528.34
2019-05-23T06:20:51.916Z,101524.63
2019-05-23T06:23:23.133Z,101524.43
2019-05-23T06:25:54.721Z,101523.36
2019-05-23T06:28:26.023Z,101520.96
2019-05-23T06:30:58.115Z,101522.59
2019-05-23T06:33:30.697Z,101526.88
2019-05-23T06:36:02.758Z,101534.69
2019-05-23T06:38:35.222Z,101529.20
2019-05-23T06:41:06.776Z,101529.98
2019-05-23T06:43:38.583Z,101529.98
2019-05-23T06:46:09.825Z,101526.22
2019-05-23T06:48:45.601Z,101534.45
2019-05-23T06:51:14.207Z,101531.28
2019-05-23T06:53:45.457Z,101531.17
2019-05-23T06:56:17.710Z,101526.02
2019-05-23T06:58:48.985Z,101526.73
2019-05-23T07:01:20.478Z,101525.20
2019-05-23T07:03:52.043Z,101530.36
2019-05-23T07:06:25.045Z,101526.41
2019-05-23T07:08:57.356Z,101527.56
2019-05-23T07:11:28.763Z,101524.64
2019-05-23T07:13:59.974Z,101519.95
2019-05-23T07:16:31.510Z,101522.89
2019-05-23T07:19:02.752Z,101525.84
2019-05-23T07:21:34.350Z,101531.14
2019-05-23T07:24:06.493Z,101526.30
2019-05-23T07:26:38.080Z,101531.09
2019-05-23T07:29:10.419Z,101525.29
2019-05-23T07:31:41.710Z,101525.64
2019-05-23T07:34:12.951Z,101532.66
2019-05-23T07:36:44.318Z,101528.75
2019-05-23T07:39:16.756Z,101532.03
2019-05-23T07:41:48.807Z,101530.01
2019-05-23T07:44:20.527Z,101527.70
2019-05-23T07:46:52.509Z,101527.14
2019-05-23T07:49:24.121Z,101531.27
2019-05-23T07:51:55.402Z,101528.63
2019-05-23T07:54:34.892Z,101534.45
2019-05-23T07:57:10.755Z,101531.05
2019-05-23T07:59:42.503Z,101529.20
2019-05-23T08:02:25.832Z,101525.91
2019-05-23T08:04:59.303Z,101532.30
2019-05-23T08:07:32.777Z,101529.02
2019-05-23T08:10:03.454Z,101525.25
2019-05-23T08:12:34.686Z,101524.95
2019-05-23T08:15:06.262Z,101518.09
2019-05-23T08:17:38.285Z,101526.61
2019-05-23T08:20:12.536Z,101524.93
2019-05-23T08:22:43.997Z,101526.72
2019-05-23T08:25:15.287Z,101521.47
2019-05-23T08:27:46.809Z,101518.92
2019-05-23T08:30:18.343Z,101524.75
2019-05-23T08:32:49.862Z,101518.62
2019-05-23T08:35:21.933Z,101517.41
2019-05-23T08:37:53.606Z,101517.41
2019-05-23T08:40:27.909Z,101523.22
2019-05-23T08:42:59.057Z,101524.69
2019-05-23T08:45:30.527Z,101523.42
2019-05-23T08:48:01.986Z,101518.97
2019-05-23T08:50:33.602Z,101527.81
2019-05-23T08:53:05.128Z,101527.52
2019-05-23T08:55:37.194Z,101529.87
2019-05-23T08:58:09.383Z,101533.50
2019-05-23T09:00:41.527Z,101528.75
2019-05-23T09:03:12.899Z,101529.36
2019-05-23T09:05:44.672Z,101531.72
2019-05-23T09:08:17.377Z,101526.52
2019-05-23T09:10:50.715Z,101519.17
2019-05-23T09:13:22.007Z,101520.25
2019-05-23T09:15:53.692Z,101519.65
2019-05-23T09:18:25.244Z,101523.77
2019-05-23T09:20:57.161Z,101518.57
2019-05-23T09:23:28.664Z,101520.97
2019-05-23T09:26:00.045Z,101514.95
2019-05-23T09:28:31.721Z,101513.72
2019-05-23T09:31:02.977Z,101520.50
2019-05-23T09:33:35.602Z,101517.48
2019-05-23T09:36:06.978Z,101510.09
2019-05-23T09:38:38.337Z,101514.27
2019-05-23T09:41:09.996Z,101517.95
2019-05-23T09:43:43.082Z,101504.77
2019-05-23T09:46:14.441Z,101505.27
2019-05-23T09:48:45.758Z,101504.55
2019-05-23T09:51:16.996Z,101502.45
2019-05-23T09:53:48.376Z,101502.23
2019-05-23T09:56:19.632Z,101509.28
2019-05-23T09:58:50.911Z,101504.08
2019-05-23T10:01:22.570Z,101501.64
2019-05-23T10:03:54.044Z,101498.35
2019-05-23T10:06:29.584Z,101494.60
2019-05-23T10:09:00.929Z,101491.67
2019-05-23T10:11:33.790Z,101490.13
2019-05-23T10:14:07.322Z,101488.56
2019-05-23T10:16:38.675Z,101485.22
2019-05-23T10:19:10.166Z,101483.25
2019-05-23T10:21:42.124Z,101490.22
2019-05-23T10:24:13.998Z,101484.16
2019-05-23T10:26:45.522Z,101484.84
2019-05-23T10:29:16.994Z,101485.80
2019-05-23T10:31:48.475Z,101481.91
2019-05-23T10:34:19.626Z,101478.45
2019-05-23T10:36:50.949Z,101478.55
2019-05-23T10:39:22.291Z,101475.52
2019-05-23T10:41:53.538Z,101474.69
2019-05-23T10:44:24.993Z,101469.58
2019-05-23T10:46:56.196Z,101463.89
2019-05-23T10:49:27.953Z,101461.81
2019-05-23T10:51:59.388Z,101456.78
2019-05-23T10:54:30.979Z,101446.31
2019-05-23T10:57:02.237Z,101447.42
2019-05-23T10:59:33.625Z,101448.00
2019-05-23T11:02:06.459Z,101444.55
2019-05-23T11:04:40.471Z,101445.17
2019-05-23T11:07:12.976Z,101435.52
2019-05-23T11:09:44.501Z,101442.38
2019-05-23T11:12:18.156Z,101444.28
2019-05-23T11:14:50.112Z,101441.81
2019-05-23T11:17:21.353Z,101440.22
2019-05-23T11:19:52.519Z,101438.62
2019-05-23T11:22:23.806Z,101436.16
2019-05-23T11:24:55.108Z,101431.93
2019-05-23T11:27:26.880Z,101436.45
2019-05-23T11:29:58.398Z,101445.17
2019-05-23T11:32:30.100Z,101439.61
2019-05-23T11:35:01.769Z,101432.14
2019-05-23T11:37:33.520Z,101427.45
2019-05-23T11:40:05.455Z,101422.33
2019-05-23T11:42:36.716Z,101426.33
2019-05-23T11:45:08.767Z,101418.30
2019-05-23T11:47:40.268Z,101422.79
2019-05-23T11:50:11.834Z,101412.83
2019-05-23T11:52:43.266Z,101413.56
2019-05-23T11:55:14.820Z,101414.33
2019-05-23T11:57:49.109Z,101412.80
2019-05-23T12:00:27.172Z,101405.84
2019-05-23T12:02:58.851Z,101403.73
2019-05-23T12:05:30.411Z,101406.63
2019-05-23T12:08:01.898Z,101405.12
2019-05-23T12:10:36.535Z,101400.42
2019-05-23T12:13:08.174Z,101405.06
2019-05-23T12:15:41.083Z,101394.72
2019-05-23T12:18:12.462Z,101388.70
2019-05-23T12:20:43.959Z,101389.39
2019-05-23T12:23:15.570Z,101381.97
2019-05-23T12:28:17.883Z,101381.17
2019-05-23T12:30:49.789Z,101374.67
2019-05-23T12:33:21.099Z,101373.03
2019-05-23T12:35:52.282Z,101373.29
2019-05-23T12:38:23.575Z,101379.77
2019-05-23T12:40:54.746Z,101369.23
2019-05-23T12:43:26.170Z,101366.19
2019-05-23T12:45:57.358Z,101360.84
2019-05-23T12:48:53.620Z,101362.77
2019-05-23T12:51:28.474Z,101361.06
2019-05-23T12:53:59.784Z,101356.38
2019-05-23T12:56:31.548Z,101350.69
2019-05-23T12:59:04.929Z,101350.00
2019-05-23T13:01:38.186Z,101351.17
2019-05-23T13:04:10.916Z,101348.78
2019-05-23T13:06:42.261Z,101337.88
2019-05-23T13:09:13.542Z,101336.77
2019-05-23T13:11:44.843Z,101336.16
2019-05-23T13:14:16.345Z,101330.98
2019-05-23T13:16:47.640Z,101340.12
2019-05-23T13:19:19.324Z,101334.41
2019-05-23T13:21:50.749Z,101336.80
2019-05-23T13:24:22.217Z,101333.85
2019-05-23T13:26:53.609Z,101328.18
2019-05-23T13:29:25.086Z,101330.65
2019-05-23T13:31:56.759Z,101330.78
2019-05-23T13:34:28.085Z,101317.00
2019-05-23T13:36:59.663Z,101314.63
2019-05-23T13:39:31.339Z,101306.58
2019-05-23T13:42:02.581Z,101301.20
2019-05-23T13:44:35.908Z,101303.89
2019-05-23T13:47:07.294Z,101309.14
2019-05-23T13:49:39.648Z,101303.14
2019-05-23T13:52:11.225Z,101302.50
2019-05-23T13:54:42.567Z,101296.30
2019-05-23T13:57:14.283Z,101294.47
2019-05-23T13:59:45.428Z,101294.50
2019-05-23T14:02:16.885Z,101292.98
2019-05-23T14:04:48.452Z,101294.98
2019-05-23T14:07:19.801Z,101290.35
2019-05-23T14:09:51.604Z,101288.92
2019-05-23T14:12:23.940Z,101282.06
2019-05-23T14:14:55.253Z,101276.12
2019-05-23T14:17:36.148Z,101275.32
2019-05-23T14:20:10.077Z,101271.29
2019-05-23T14:22:46.334Z,101283.70
2019-05-23T14:25:18.700Z,101280.51
2019-05-23T14:28:04.319Z,101284.41
2019-05-23T14:31:00.806Z,101277.98
2019-05-23T14:33:51.157Z,101284.53
2019-05-23T14:36:57.835Z,101273.98
2019-05-23T14:39:47.962Z,101272.41
2019-05-23T14:42:37.190Z,101279.16
2019-05-23T14:45:24.850Z,101273.68
2019-05-23T14:48:02.785Z,101277.02
2019-05-23T14:50:52.671Z,101266.20
2019-05-23T14:53:26.528Z,101265.81
2019-05-23T14:55:58.106Z,101266.09
2019-05-23T14:58:29.890Z,101255.22
2019-05-23T15:01:02.498Z,101257.19
2019-05-23T15:03:35.983Z,101257.60
2019-05-23T15:06:08.022Z,101260.20
2019-05-23T15:08:50.387Z,101257.53
2019-05-23T15:11:12.902Z,101253.08
2019-05-23T15:13:44.245Z,101253.81
2019-05-23T15:16:16.630Z,101247.22
2019-05-23T15:18:48.011Z,101243.91
2019-05-23T15:21:19.580Z,101248.97
2019-05-23T15:23:50.841Z,101245.39
2019-05-23T15:26:23.673Z,101238.53
2019-05-23T15:28:55.235Z,101233.58
2019-05-23T15:31:26.628Z,101237.83
2019-05-23T15:33:58.797Z,101233.58
2019-05-23T15:36:30.467Z,101236.47
2019-05-23T15:39:09.663Z,101235.28
2019-05-23T15:41:34.765Z,101230.88
2019-05-23T15:44:22.626Z,101224.98
2019-05-23T15:46:40.805Z,101227.47
2019-05-23T15:49:13.732Z,101240.22
2019-05-23T15:51:54.638Z,101231.42
2019-05-23T15:54:34.536Z,101232.48
2019-05-23T15:57:14.524Z,101228.64
2019-05-23T16:00:03.790Z,101224.77
2019-05-23T16:02:42.394Z,101228.44
2019-05-23T16:05:14.868Z,101226.30
2019-05-23T16:07:46.475Z,101229.92
2019-05-23T16:10:18.094Z,101225.03
2019-05-23T16:12:49.764Z,101218.30
2019-05-23T16:15:21.038Z,101226.39
2019-05-23T16:17:52.389Z,101219.23
2019-05-23T16:20:24.580Z,101216.08
2019-05-23T16:22:56.229Z,101218.72
2019-05-23T16:25:27.465Z,101215.59
2019-05-23T16:27:58.893Z,101212.47
2019-05-23T16:30:31.216Z,101217.84
2019-05-23T16:33:02.651Z,101223.17
2019-05-23T16:35:34.035Z,101216.44
2019-05-23T16:38:05.581Z,101213.27
2019-05-23T16:40:36.800Z,101218.10
2019-05-23T16:43:08.405Z,101219.38
2019-05-23T16:45:39.662Z,101212.16
2019-05-23T16:48:11.018Z,101215.22
2019-05-23T16:50:42.272Z,101215.66
2019-05-23T16:53:13.483Z,101220.94
2019-05-23T16:55:57.729Z,101212.83
2019-05-23T16:58:51.176Z,101214.31
2019-05-23T17:01:57.071Z,101218.09
2019-05-23T17:04:32.126Z,101215.78
2019-05-23T17:07:14.928Z,101208.56
2019-05-23T17:10:08.372Z,101215.20
2019-05-23T17:12:53.065Z,101205.70
2019-05-23T17:15:42.733Z,101207.73
2019-05-23T17:18:26.898Z,101203.50
2019-05-23T17:21:04.000Z,101199.31
2019-05-23T17:23:47.109Z,101201.46
2019-05-23T17:26:24.539Z,101196.36
2019-05-23T17:28:55.953Z,101200.46
2019-05-23T17:31:32.975Z,101194.84
2019-05-23T17:34:04.292Z,101194.77
2019-05-23T17:36:35.587Z,101198.72
2019-05-23T17:39:10.258Z,101200.03
2019-05-23T17:41:42.696Z,101190.59
2019-05-23T17:44:14.690Z,101195.94
2019-05-23T17:46:46.216Z,101196.85
2019-05-23T17:49:17.836Z,101194.61
2019-05-23T17:51:49.307Z,101195.95
2019-05-23T17:54:20.834Z,101198.22
2019-05-23T17:56:52.054Z,101194.26
2019-05-23T17:59:23.418Z,101188.92
2019-05-23T18:01:55.449Z,101199.30
2019-05-23T18:04:28.209Z,101195.77
2019-05-23T18:06:59.664Z,101193.17
2019-05-23T18:09:31.889Z,101195.34
2019-05-23T18:12:03.927Z,101201.55
2019-05-23T18:14:36.753Z,101198.36
2019-05-23T18:17:09.443Z,101201.40
2019-05-23T18:19:42.151Z,101206.66
2019-05-23T18:22:14.099Z,101200.31
2019-05-23T18:24:46.051Z,101201.98
2019-05-23T18:27:17.748Z,101204.13
2019-05-23T18:29:49.437Z,101202.69
2019-05-23T18:32:24.959Z,101197.17
2019-05-23T18:34:56.185Z,101202.42
2019-05-23T18:37:27.530Z,101200.08
2019-05-23T18:39:58.737Z,101199.04
2019-05-23T18:42:30.084Z,101206.52
2019-05-23T18:45:01.938Z,101203.73
2019-05-23T18:47:38.422Z,101208.95
2019-05-23T18:50:11.520Z,101211.94
2019-05-23T18:52:44.039Z,101217.11
2019-05-23T18:55:16.998Z,101212.97
2019-05-23T18:57:48.505Z,101215.05
2019-05-23T19:00:25.266Z,101222.89
2019-05-23T19:02:56.845Z,101224.99
2019-05-23T19:05:29.767Z,101224.84
2019-05-23T19:08:04.898Z,101222.44
2019-05-23T19:10:38.213Z,101231.20
2019-05-23T19:13:09.604Z,101224.80
2019-05-23T19:15:41.612Z,101224.17
2019-05-23T19:18:13.117Z,101222.63
2019-05-23T19:20:44.710Z,101228.25
2019-05-23T19:23:16.333Z,101233.44
2019-05-23T19:25:49.697Z,101236.41
2019-05-23T19:28:22.532Z,101232.67
2019-05-23T19:30:54.096Z,101231.59
2019-05-23T19:33:26.197Z,101235.81
2019-05-23T19:35:57.573Z,101231.69
2019-05-23T19:38:28.801Z,101238.08
2019-05-23T19:41:00.114Z,101235.67
2019-05-23T19:43:33.386Z,101242.17
2019-05-23T19:46:04.973Z,101237.06
2019-05-23T19:48:39.794Z,101243.55
2019-05-23T19:51:13.597Z,101238.95
2019-05-23T19:53:45.124Z,101242.77
2019-05-23T19:56:22.803Z,101237.31
2019-05-23T19:58:58.444Z,101237.13
2019-05-23T20:01:34.187Z,101229.38
2019-05-23T20:04:07.197Z,101230.55
2019-05-23T20:06:39.204Z,101230.39
2019-05-23T20:09:13.511Z,101226.23
2019-05-23T20:11:56.267Z,101230.07
2019-05-23T20:14:44.241Z,101221.95
2019-05-23T20:17:21.932Z,101222.59
2019-05-23T20:20:07.561Z,101220.64
2019-05-23T20:22:53.966Z,101216.03
2019-05-23T20:25:28.847Z,101214.98
2019-05-23T20:28:07.389Z,101213.94
2019-05-23T20:30:57.629Z,101212.92
2019-05-23T20:40:19.583Z,101210.69
2019-05-23T20:43:09.209Z,101209.66
2019-05-23T20:45:49.362Z,101209.00
2019-05-23T20:48:20.988Z,101212.92
2019-05-23T20:50:52.974Z,101217.25
2019-05-23T20:53:27.551Z,101214.45
2019-05-23T20:55:58.982Z,101217.45
2019-05-23T20:58:30.518Z,101218.25
2019-05-23T21:01:22.403Z,101211.45
2019-05-23T21:03:58.221Z,101214.39
2019-05-23T21:06:31.602Z,101218.61
2019-05-23T21:09:05.141Z,101220.66
2019-05-23T21:11:36.939Z,101217.47
2019-05-23T21:15:06.291Z,101220.39
2019-05-23T21:17:31.943Z,101224.27
2019-05-23T21:20:11.391Z,101222.70
2019-05-23T21:22:49.057Z,101223.91
2019-05-23T21:25:20.309Z,101221.09
2019-05-23T21:27:52.549Z,101216.95
2019-05-23T21:30:33.521Z,101222.19
2019-05-23T21:33:06.917Z,101215.42
2019-05-23T21:35:46.101Z,101216.17
2019-05-23T21:38:17.506Z,101214.27
2019-05-23T21:40:49.700Z,101215.02
2019-05-23T21:43:22.663Z,101206.47
2019-05-23T21:45:55.538Z,101209.53
2019-05-23T21:48:30.056Z,101212.07
2019-05-23T21:51:03.159Z,101208.91
2019-05-23T21:53:35.207Z,101212.78
2019-05-23T21:56:07.099Z,101215.77
2019-05-23T21:58:38.575Z,101212.98
2019-05-23T22:02:06.135Z,101212.82
2019-05-23T22:04:52.925Z,101208.70
2019-05-23T22:07:27.317Z,101211.52
2019-05-23T22:10:00.780Z,101206.95
2019-05-23T22:12:37.474Z,101212.59
2019-05-23T22:15:09.043Z,101209.80
2019-05-23T22:17:45.279Z,101208.35
2019-05-23T22:20:18.297Z,101206.94
2019-05-23T22:22:51.700Z,101198.88
2019-05-23T22:25:34.549Z,101210.70
2019-05-23T22:28:06.120Z,101202.59
2019-05-23T22:30:48.332Z,101197.11
2019-05-23T22:33:22.432Z,101198.35
2019-05-23T22:35:56.945Z,101200.83
2019-05-23T22:38:29.224Z,101199.83
2019-05-23T22:41:03.946Z,101201.92
2019-05-23T22:43:35.220Z,101195.16
2019-05-23T22:46:07.764Z,101195.90
2019-05-23T22:48:39.066Z,101186.93
2019-05-23T22:51:11.733Z,101192.56
2019-05-23T22:53:43.430Z,101194.20
2019-05-23T22:56:20.406Z,101189.22
2019-05-23T22:58:52.214Z,101191.28
2019-05-23T23:01:29.149Z,101196.90
2019-05-23T23:04:00.947Z,101193.73
2019-05-23T23:06:33.735Z,101194.93
2019-05-23T23:09:09.518Z,101196.16
2019-05-23T23:11:40.981Z,101191.59
2019-05-23T23:14:12.575Z,101190.53
2019-05-23T23:16:45.670Z,101190.84
2019-05-23T23:19:17.449Z,101192.08
2019-05-23T23:21:48.802Z,101187.91
2019-05-23T23:24:20.443Z,101188.23
2019-05-23T23:26:51.664Z,101186.30
2019-05-23T23:29:23.308Z,101191.92
2019-05-23T23:31:56.529Z,101186.92
2019-05-23T23:34:27.962Z,101187.60
2019-05-23T23:37:00.442Z,101192.75
2019-05-23T23:39:32.014Z,101181.91
2019-05-23T23:42:04.710Z,101181.72
2019-05-23T23:44:35.172Z,101181.06
2019-05-23T23:47:24.333Z,101179.16
2019-05-23T23:50:13.221Z,101177.23
2019-05-23T23:53:05.187Z,101175.61
2019-05-23T23:55:57.363Z,101173.63
2019-05-23T23:58:46.706Z,101174.34
